createdAt,value
2024-02-02T00:03:14.430Z,3.13
2024-02-02T00:08:18.091Z,3.12
2024-02-02T00:13:21.205Z,3.10
2024-02-02T00:18:24.510Z,3.08
2024-02-02T00:23:27.733Z,3.06
2024-02-02T00:28:30.869Z,3.04
2024-02-02T00:33:34.160Z,3.01
2024-02-02T00:38:37.374Z,2.96
2024-02-02T00:43:40.678Z,2.87
2024-02-02T00:48:44.385Z,2.72
2024-02-02T00:53:47.839Z,2.63
2024-02-02T00:58:51.145Z,2.57
2024-02-02T01:03:54.198Z,2.53
2024-02-02T01:08:57.372Z,2.48
2024-02-02T01:14:00.548Z,2.48
2024-02-02T01:19:04.015Z,2.48
2024-02-02T01:24:07.879Z,2.48
2024-02-02T01:29:11.118Z,2.47
2024-02-02T01:34:14.450Z,2.46
2024-02-02T01:39:18.213Z,2.41
2024-02-02T01:44:21.343Z,2.32
2024-02-02T01:49:24.688Z,2.22
2024-02-02T01:54:29.060Z,2.17
2024-02-02T01:59:32.713Z,2.18
2024-02-02T02:04:36.049Z,2.25
2024-02-02T02:09:39.231Z,2.35
2024-02-02T02:14:43.432Z,2.42
2024-02-02T02:19:50.345Z,2.47
2024-02-02T02:24:53.480Z,2.53
2024-02-02T02:29:56.609Z,2.55
2024-02-02T02:35:00.007Z,2.59
2024-02-02T02:40:03.328Z,2.62
2024-02-02T02:45:06.787Z,2.64
2024-02-02T02:50:13.562Z,2.61
2024-02-02T02:55:16.660Z,2.58
2024-02-02T03:00:21.171Z,2.57
2024-02-02T03:05:25.251Z,2.54
2024-02-02T03:10:28.946Z,2.45
2024-02-02T03:15:33.235Z,2.36
2024-02-02T03:20:36.495Z,2.28
2024-02-02T03:25:39.616Z,2.22
2024-02-02T03:30:42.832Z,2.18
2024-02-02T03:35:46.024Z,2.19
2024-02-02T03:40:49.129Z,2.22
2024-02-02T03:45:52.252Z,2.24
2024-02-02T03:50:55.417Z,2.26
2024-02-02T03:55:59.608Z,2.27
2024-02-02T04:01:02.809Z,2.29
2024-02-02T04:06:06.755Z,2.31
2024-02-02T04:11:09.939Z,2.32
2024-02-02T04:16:12.944Z,2.34
2024-02-02T04:21:16.416Z,2.36
2024-02-02T04:26:19.581Z,2.39
2024-02-02T04:31:22.696Z,2.39
2024-02-02T04:36:25.930Z,2.40
2024-02-02T04:41:29.101Z,2.38
2024-02-02T04:46:32.210Z,2.35
2024-02-02T04:51:36.658Z,2.30
2024-02-02T04:56:39.864Z,2.22
2024-02-02T05:01:43.007Z,2.14
2024-02-02T05:06:46.180Z,2.07
2024-02-02T05:11:49.409Z,2.02
2024-02-02T05:16:52.502Z,2.01
2024-02-02T05:21:55.624Z,2.03
2024-02-02T05:26:58.748Z,2.07
2024-02-02T05:32:02.036Z,2.12
2024-02-02T05:37:05.613Z,2.16
2024-02-02T05:42:08.713Z,2.17
2024-02-02T05:47:12.088Z,2.17
2024-02-02T05:52:15.185Z,2.17
2024-02-02T05:57:18.220Z,2.16
2024-02-02T06:02:22.649Z,2.12
2024-02-02T06:07:26.086Z,2.07
2024-02-02T06:12:29.293Z,2.04
2024-02-02T06:17:32.502Z,2.04
2024-02-02T06:22:35.801Z,2.03
2024-02-02T06:27:39.321Z,2.00
2024-02-02T06:32:47.388Z,1.95
2024-02-02T06:37:50.543Z,1.83
2024-02-02T06:42:53.755Z,1.66
2024-02-02T06:47:56.987Z,1.52
2024-02-02T06:53:00.174Z,1.46
2024-02-02T06:58:05.743Z,1.42
2024-02-02T07:03:08.908Z,1.48
2024-02-02T07:08:12.576Z,1.82
2024-02-02T07:13:15.835Z,2.50
2024-02-02T07:18:38.213Z,3.07
2024-02-02T07:23:42.961Z,3.47
2024-02-02T07:28:46.317Z,3.82
2024-02-02T07:33:50.412Z,3.87
2024-02-02T07:38:57.566Z,3.87
2024-02-02T07:44:03.110Z,3.89
2024-02-02T07:49:06.517Z,3.88
2024-02-02T07:54:10.438Z,4.31
2024-02-02T07:59:13.481Z,4.91
2024-02-02T08:04:16.890Z,5.29
2024-02-02T08:09:20.289Z,5.44
2024-02-02T08:14:23.520Z,5.14
2024-02-02T08:19:27.063Z,4.78
2024-02-02T08:24:30.354Z,4.40
2024-02-02T08:29:33.454Z,4.10
2024-02-02T08:34:36.857Z,3.87
2024-02-02T08:39:40.248Z,3.70
2024-02-02T08:44:43.863Z,3.62
2024-02-02T08:49:57.736Z,3.55
2024-02-02T08:55:04.518Z,3.41
2024-02-02T09:00:15.992Z,3.17
2024-02-02T09:05:26.350Z,2.93
2024-02-02T09:10:33.237Z,2.81
2024-02-02T09:15:36.786Z,2.72
2024-02-02T09:20:50.543Z,2.68
2024-02-02T09:25:54.598Z,2.66
2024-02-02T09:31:06.271Z,2.64
2024-02-02T09:36:10.149Z,2.68
2024-02-02T09:41:41.193Z,2.81
2024-02-02T09:46:57.196Z,2.96
2024-02-02T09:52:21.376Z,3.06
2024-02-02T09:57:30.541Z,3.16
2024-02-02T10:03:03.035Z,3.23
2024-02-02T10:08:44.539Z,3.23
2024-02-02T10:13:53.681Z,3.25
2024-02-02T10:19:06.192Z,3.27
2024-02-02T10:24:22.165Z,3.31
2024-02-02T10:29:41.724Z,3.36
2024-02-02T10:35:10.542Z,3.41
2024-02-02T10:40:38.188Z,3.47
2024-02-02T10:45:58.469Z,3.54
2024-02-02T10:51:37.953Z,3.58
2024-02-02T10:57:02.440Z,3.61
2024-02-02T11:02:11.974Z,3.62
2024-02-02T11:07:22.857Z,3.64
2024-02-02T11:13:01.774Z,3.69
2024-02-02T11:18:51.807Z,3.77
2024-02-02T11:24:24.744Z,3.90
2024-02-02T11:29:46.463Z,4.02
2024-02-02T11:35:22.408Z,4.12
2024-02-02T11:40:28.446Z,4.22
2024-02-02T11:45:39.803Z,4.31
2024-02-02T11:50:45.465Z,4.41
2024-02-02T11:55:52.911Z,4.53
2024-02-02T12:01:30.218Z,4.64
2024-02-02T12:07:02.897Z,4.69
2024-02-02T12:12:14.280Z,4.70
2024-02-02T12:17:19.115Z,4.68
2024-02-02T12:22:23.727Z,4.64
2024-02-02T12:27:27.369Z,4.59
2024-02-02T12:32:30.865Z,4.55
2024-02-02T12:37:52.113Z,4.53
2024-02-02T12:42:58.280Z,4.53
2024-02-02T12:48:01.953Z,4.54
2024-02-02T12:53:06.565Z,4.56
2024-02-02T12:58:09.766Z,4.57
2024-02-02T13:03:14.190Z,4.59
2024-02-02T13:08:29.606Z,4.57
2024-02-02T13:13:35.010Z,4.54
2024-02-02T13:18:38.622Z,4.48
2024-02-02T13:23:44.207Z,4.42
2024-02-02T13:28:53.278Z,4.38
2024-02-02T13:34:06.467Z,4.34
2024-02-02T13:39:20.471Z,4.29
2024-02-02T13:44:24.573Z,4.24
2024-02-02T13:49:35.017Z,4.22
2024-02-02T13:54:38.969Z,4.19
2024-02-02T13:59:42.946Z,4.11
2024-02-02T14:04:47.155Z,4.03
2024-02-02T14:10:10.765Z,3.93
2024-02-02T14:15:14.265Z,3.85
2024-02-02T14:20:17.529Z,3.78
2024-02-02T14:25:30.991Z,3.73
2024-02-02T14:30:37.121Z,3.66
2024-02-02T14:35:40.992Z,3.59
2024-02-02T14:40:44.311Z,3.51
2024-02-02T14:45:48.364Z,3.43
2024-02-02T14:50:52.272Z,3.35
2024-02-02T14:55:55.376Z,3.29
2024-02-02T15:01:02.006Z,3.22
2024-02-02T15:06:05.906Z,3.15
2024-02-02T15:11:10.530Z,3.08
2024-02-02T15:16:14.763Z,3.02
2024-02-02T15:21:18.221Z,2.95
2024-02-02T15:26:21.592Z,2.88
2024-02-02T15:31:25.018Z,2.81
2024-02-02T15:36:30.254Z,2.75
2024-02-02T15:41:36.265Z,2.68
2024-02-02T15:46:39.586Z,2.62
2024-02-02T15:51:43.514Z,2.57
2024-02-02T15:56:47.151Z,2.52
2024-02-02T16:01:50.837Z,2.48
2024-02-02T16:07:03.866Z,2.45
2024-02-02T16:12:14.504Z,2.42
2024-02-02T16:17:27.674Z,2.38
2024-02-02T16:22:31.714Z,2.37
2024-02-02T16:27:36.375Z,2.36
2024-02-02T16:32:40.018Z,2.36
2024-02-02T16:37:43.220Z,2.37
2024-02-02T16:42:47.034Z,2.38
2024-02-02T16:47:50.502Z,2.39
2024-02-02T16:52:53.674Z,2.40
2024-02-02T16:57:56.826Z,2.42
2024-02-02T17:03:00.155Z,2.44
2024-02-02T17:08:05.456Z,2.43
2024-02-02T17:13:08.572Z,2.44
2024-02-02T17:18:11.859Z,2.44
2024-02-02T17:23:16.139Z,2.42
2024-02-02T17:28:19.298Z,2.44
2024-02-02T17:33:22.546Z,2.45
2024-02-02T17:38:25.750Z,2.45
2024-02-02T17:43:29.529Z,2.44
2024-02-02T17:48:34.090Z,2.42
2024-02-02T17:53:41.104Z,2.43
2024-02-02T17:58:44.959Z,2.44
2024-02-02T18:03:48.313Z,2.46
2024-02-02T18:08:51.682Z,2.51
2024-02-02T18:13:54.884Z,2.55
2024-02-02T18:18:58.380Z,2.61
2024-02-02T18:24:01.731Z,2.66
2024-02-02T18:29:05.282Z,2.71
2024-02-02T18:34:09.016Z,2.76
2024-02-02T18:39:14.554Z,2.80
2024-02-02T18:44:17.750Z,2.85
2024-02-02T18:49:21.047Z,2.89
2024-02-02T18:54:24.424Z,2.93
2024-02-02T18:59:27.685Z,2.96
2024-02-02T19:04:30.761Z,3.00
2024-02-02T19:09:34.360Z,3.04
2024-02-02T19:14:38.204Z,3.08
2024-02-02T19:19:41.401Z,3.11
2024-02-02T19:24:47.621Z,3.14
2024-02-02T19:29:51.057Z,3.16
2024-02-02T19:34:54.242Z,3.20
2024-02-02T19:39:58.515Z,3.24
2024-02-02T19:45:02.051Z,3.26
2024-02-02T19:50:06.587Z,3.29
2024-02-02T19:55:10.485Z,3.31
2024-02-02T20:00:15.203Z,3.33
2024-02-02T20:05:21.929Z,3.34
2024-02-02T20:10:27.573Z,3.36
2024-02-02T20:15:33.909Z,3.41
2024-02-02T20:20:38.327Z,3.43
2024-02-02T20:25:41.798Z,3.44
2024-02-02T20:30:45.595Z,3.46
2024-02-02T20:35:48.773Z,3.48
2024-02-02T20:40:52.145Z,3.51
2024-02-02T20:45:55.506Z,3.53
2024-02-02T20:50:59.444Z,3.55
2024-02-02T20:56:02.789Z,3.57
2024-02-02T21:01:07.592Z,3.58
2024-02-02T21:06:11.103Z,3.60
2024-02-02T21:11:15.135Z,3.63
2024-02-02T21:16:18.893Z,3.66
2024-02-02T21:21:22.824Z,3.69
2024-02-02T21:26:28.258Z,3.73
2024-02-02T21:31:31.466Z,3.77
2024-02-02T21:36:35.166Z,3.81
2024-02-02T21:41:39.424Z,3.84
2024-02-02T21:46:44.498Z,3.87
2024-02-02T21:51:47.681Z,3.90
2024-02-02T21:56:51.285Z,3.94
2024-02-02T22:01:54.525Z,3.97
2024-02-02T22:06:57.923Z,3.99
2024-02-02T22:12:01.163Z,4.03
2024-02-02T22:17:04.783Z,4.07
2024-02-02T22:22:08.298Z,4.10
2024-02-02T22:27:11.671Z,4.15
2024-02-02T22:32:19.991Z,4.17
2024-02-02T22:37:23.354Z,4.21
2024-02-02T22:42:28.238Z,4.24
2024-02-02T22:47:31.321Z,4.27
2024-02-02T22:52:34.427Z,4.31
2024-02-02T22:57:37.599Z,4.34
2024-02-02T23:02:40.650Z,4.37
2024-02-02T23:07:44.489Z,4.38
2024-02-02T23:12:48.069Z,4.41
2024-02-02T23:17:51.800Z,4.42
2024-02-02T23:22:54.941Z,4.43
2024-02-02T23:27:58.357Z,4.44
2024-02-02T23:33:01.596Z,4.45
2024-02-02T23:38:04.881Z,4.47
2024-02-02T23:43:07.981Z,4.50
2024-02-02T23:48:11.322Z,4.52
2024-02-02T23:53:14.601Z,4.55
2024-02-02T23:58:18.344Z,4.58
